createdAt,value
2023-04-15T00:03:31.854Z,100081.56
2023-04-15T00:07:33.757Z,100084.81
2023-04-15T00:11:35.519Z,100085.44
2023-04-15T00:15:37.641Z,100080.03
2023-04-15T00:19:39.185Z,100077.91
2023-04-15T00:23:40.940Z,100073.81
2023-04-15T00:27:42.405Z,100073.72
2023-04-15T00:31:44.642Z,100076.97
2023-04-15T00:35:48.279Z,100072.28
2023-04-15T00:39:50.403Z,100070.59
2023-04-15T00:43:52.139Z,100066.78
2023-04-15T00:47:53.854Z,100082.38
2023-04-15T00:51:55.669Z,100062.41
2023-04-15T00:55:57.200Z,100068.53
2023-04-15T00:59:58.896Z,100064.59
2023-04-15T01:04:00.403Z,100072.28
2023-04-15T01:08:02.877Z,100063.31
2023-04-15T01:12:05.013Z,100057.34
2023-04-15T01:16:07.581Z,100055.25
2023-04-15T01:20:12.224Z,100051.53
2023-04-15T01:24:18.112Z,100053.56
2023-04-15T01:28:20.331Z,100048.91
2023-04-15T01:32:21.805Z,100044.13
2023-04-15T01:36:23.217Z,100053.34
2023-04-15T01:40:24.958Z,100042.50
2023-04-15T01:44:26.434Z,100046.31
2023-04-15T01:48:28.208Z,100047.50
2023-04-15T01:52:29.727Z,100046.44
2023-04-15T01:56:31.183Z,100050.97
2023-04-15T02:00:32.690Z,100042.81
2023-04-15T02:04:34.257Z,100043.13
2023-04-15T02:08:35.659Z,100041.06
2023-04-15T02:12:37.152Z,100038.25
2023-04-15T02:16:38.697Z,100038.75
2023-04-15T02:20:40.557Z,100029.53
2023-04-15T02:24:41.999Z,100029.31
2023-04-15T02:28:43.477Z,100017.50
2023-04-15T02:32:45.438Z,100031.06
2023-04-15T02:36:48.636Z,100034.22
2023-04-15T02:40:50.925Z,100032.72
2023-04-15T02:44:52.364Z,100035.69
2023-04-15T02:48:53.872Z,100034.84
2023-04-15T02:52:55.341Z,100042.81
2023-04-15T02:56:56.858Z,100040.19
2023-04-15T03:00:58.286Z,100035.19
2023-04-15T03:04:59.701Z,100037.09
2023-04-15T03:09:02.365Z,100046.09
2023-04-15T03:13:03.927Z,100047.63
2023-04-15T03:17:05.393Z,100045.31
2023-04-15T03:21:07.240Z,100042.84
2023-04-15T03:25:09.178Z,100038.41
2023-04-15T03:29:10.733Z,100042.25
2023-04-15T03:33:12.258Z,100049.91
2023-04-15T03:37:13.728Z,100045.47
2023-04-15T03:41:15.110Z,100039.06
2023-04-15T03:45:16.673Z,100033.91
2023-04-15T03:49:19.278Z,100041.53
2023-04-15T03:53:21.338Z,100051.13
2023-04-15T03:57:22.785Z,100051.88
2023-04-15T04:01:24.260Z,100046.69
2023-04-15T04:05:25.784Z,100052.00
2023-04-15T04:09:27.777Z,100052.00
2023-04-15T04:13:29.169Z,100050.91
2023-04-15T04:17:30.684Z,100057.53
2023-04-15T04:21:34.094Z,100065.97
2023-04-15T04:25:35.542Z,100064.72
2023-04-15T04:29:36.955Z,100058.91
2023-04-15T04:33:38.425Z,100062.13
2023-04-15T04:37:39.894Z,100052.00
2023-04-15T04:41:41.681Z,100050.91
2023-04-15T04:45:43.157Z,100051.06
2023-04-15T04:49:44.629Z,100061.41
2023-04-15T04:53:46.091Z,100066.69
2023-04-15T04:57:47.509Z,100066.03
2023-04-15T05:01:49.298Z,100063.50
2023-04-15T05:05:50.762Z,100064.78
2023-04-15T05:09:52.160Z,100071.56
2023-04-15T05:13:53.670Z,100079.50
2023-04-15T05:17:55.230Z,100080.00
2023-04-15T05:21:56.683Z,100082.03
2023-04-15T05:25:58.160Z,100087.94
2023-04-15T05:29:59.709Z,100083.28
2023-04-15T05:34:01.540Z,100089.97
2023-04-15T05:38:03.000Z,100082.22
2023-04-15T05:42:05.981Z,100084.84
2023-04-15T05:46:08.534Z,100089.41
2023-04-15T05:50:10.691Z,100087.88
2023-04-15T05:54:12.116Z,100092.56
2023-04-15T05:58:13.650Z,100076.94
2023-04-15T06:02:15.398Z,100083.31
2023-04-15T06:06:16.899Z,100085.56
2023-04-15T06:10:18.371Z,100087.19
2023-04-15T06:14:19.982Z,100081.09
2023-04-15T06:18:21.485Z,100081.56
2023-04-15T06:22:23.643Z,100087.78
2023-04-15T06:26:25.173Z,100080.22
2023-04-15T06:30:26.730Z,100083.41
2023-04-15T06:34:28.208Z,100091.22
2023-04-15T06:38:29.641Z,100105.47
2023-04-15T06:42:31.075Z,100102.66
2023-04-15T06:46:32.732Z,100110.50
2023-04-15T06:50:35.625Z,100118.47
2023-04-15T06:54:37.533Z,100121.78
2023-04-15T06:58:38.949Z,100115.09
2023-04-15T07:02:40.563Z,100120.81
2023-04-15T07:06:42.807Z,100114.53
2023-04-15T07:10:44.371Z,100118.69
2023-04-15T07:14:45.888Z,100127.66
2023-04-15T07:18:47.313Z,100132.78
2023-04-15T07:22:48.781Z,100129.22
2023-04-15T07:26:50.253Z,100144.16
2023-04-15T07:30:51.712Z,100139.38
2023-04-15T07:34:53.481Z,100143.66
2023-04-15T07:38:55.407Z,100151.47
2023-04-15T07:42:58.408Z,100145.13
2023-04-15T07:46:59.907Z,100149.81
2023-04-15T07:51:02.335Z,100145.75
2023-04-15T07:55:04.072Z,100146.50
2023-04-15T07:59:06.485Z,100164.16
2023-04-15T08:03:08.098Z,100164.91
2023-04-15T08:07:09.734Z,100164.31
2023-04-15T08:11:11.489Z,100168.78
2023-04-15T08:15:13.365Z,100166.53
2023-04-15T08:19:14.810Z,100167.69
2023-04-15T08:23:16.266Z,100173.78
2023-04-15T08:27:17.959Z,100176.91
2023-04-15T08:31:20.155Z,100184.38
2023-04-15T08:35:22.142Z,100182.16
2023-04-15T08:39:23.696Z,100182.19
2023-04-15T08:43:30.283Z,100183.69
2023-04-15T08:47:32.073Z,100188.53
2023-04-15T08:51:33.959Z,100182.56
2023-04-15T08:55:36.769Z,100188.97
2023-04-15T08:59:38.831Z,100190.41
2023-04-15T09:03:40.706Z,100189.50
2023-04-15T09:07:42.318Z,100196.25
2023-04-15T09:11:43.796Z,100195.75
2023-04-15T09:15:45.763Z,100204.72
2023-04-15T09:19:47.364Z,100200.59
2023-04-15T09:24:02.010Z,100208.91
2023-04-15T09:28:04.183Z,100215.16
2023-04-15T09:32:13.860Z,100216.16
2023-04-15T09:36:15.529Z,100217.34
2023-04-15T09:40:37.247Z,100224.84
2023-04-15T09:44:38.761Z,100234.13
2023-04-15T09:48:40.307Z,100226.84
2023-04-15T09:52:43.397Z,100231.78
2023-04-15T09:56:45.576Z,100243.59
2023-04-15T10:00:52.193Z,100243.44
2023-04-15T10:04:54.665Z,100253.56
2023-04-15T10:08:57.958Z,100257.13
2023-04-15T10:12:59.483Z,100258.19
2023-04-15T10:17:05.569Z,100257.56
2023-04-15T10:21:08.680Z,100264.28
2023-04-15T10:25:11.723Z,100268.28
2023-04-15T10:29:14.006Z,100278.38
2023-04-15T10:33:20.036Z,100274.13
2023-04-15T10:37:23.487Z,100272.50
2023-04-15T10:41:27.870Z,100271.97
2023-04-15T10:45:34.532Z,100280.09
2023-04-15T10:49:45.050Z,100285.88
2023-04-15T10:53:46.856Z,100289.34
2023-04-15T10:57:54.229Z,100286.56
2023-04-15T11:02:02.852Z,100287.66
2023-04-15T11:06:06.203Z,100302.19
2023-04-15T11:10:13.726Z,100309.84
2023-04-15T11:14:16.319Z,100309.75
2023-04-15T11:18:33.069Z,100310.50
2023-04-15T11:22:34.550Z,100314.94
2023-04-15T11:26:36.068Z,100319.13
2023-04-15T11:30:38.193Z,100328.75
2023-04-15T11:34:39.631Z,100333.41
2023-04-15T11:38:45.259Z,100335.38
2023-04-15T11:42:50.257Z,100335.00
2023-04-15T11:46:51.896Z,100342.16
2023-04-15T11:51:03.796Z,100350.66
2023-04-15T11:55:08.232Z,100355.25
2023-04-15T11:59:09.942Z,100357.59
2023-04-15T12:03:12.944Z,100357.75
2023-04-15T12:07:14.712Z,100359.41
2023-04-15T12:11:27.597Z,100364.91
2023-04-15T12:15:29.233Z,100360.59
2023-04-15T12:19:36.240Z,100366.81
2023-04-15T12:23:51.464Z,100376.56
2023-04-15T12:27:59.652Z,100372.16
2023-04-15T12:32:12.918Z,100377.22
2023-04-15T12:36:14.731Z,100385.91
2023-04-15T12:40:22.989Z,100389.03
2023-04-15T12:44:24.500Z,100379.91
2023-04-15T12:48:31.457Z,100384.09
2023-04-15T12:52:33.614Z,100400.34
2023-04-15T12:57:08.725Z,100396.97
2023-04-15T13:01:00.684Z,100397.34
2023-04-15T13:05:02.181Z,100410.72
2023-04-15T13:09:05.869Z,100398.00
2023-04-15T13:13:10.862Z,100416.41
2023-04-15T13:17:17.580Z,100411.75
2023-04-15T13:21:29.151Z,100408.50
2023-04-15T13:29:49.212Z,100416.25
2023-04-15T13:33:50.804Z,100414.72
2023-04-15T13:37:54.138Z,100423.50
2023-04-15T13:41:55.939Z,100420.16
2023-04-15T13:45:57.491Z,100432.81
2023-04-15T13:49:58.937Z,100437.22
2023-04-15T13:54:00.406Z,100440.25
2023-04-15T13:58:01.920Z,100449.09
2023-04-15T14:02:03.649Z,100449.09
2023-04-15T14:06:06.066Z,100452.03
2023-04-15T14:10:08.161Z,100459.31
2023-04-15T14:14:09.645Z,100456.03
2023-04-15T14:18:11.156Z,100462.13
2023-04-15T14:22:12.641Z,100466.53
2023-04-15T14:26:14.561Z,100473.59
2023-04-15T14:30:16.048Z,100474.34
2023-04-15T14:34:17.843Z,100482.19
2023-04-15T14:38:19.249Z,100486.94
2023-04-15T14:42:20.854Z,100488.53
2023-04-15T14:46:22.966Z,100499.38
2023-04-15T14:50:24.496Z,100500.00
2023-04-15T14:54:26.032Z,100502.94
2023-04-15T14:58:27.433Z,100506.84
2023-04-15T15:02:39.091Z,100514.63
2023-04-15T15:06:42.014Z,100517.38
2023-04-15T15:10:48.391Z,100512.91
2023-04-15T15:14:51.298Z,100520.47
2023-04-15T15:18:52.841Z,100524.22
2023-04-15T15:22:54.568Z,100537.00
2023-04-15T15:26:59.999Z,100540.34
2023-04-15T15:31:01.623Z,100533.97
2023-04-15T15:35:03.193Z,100545.16
2023-04-15T15:39:05.321Z,100546.34
2023-04-15T15:43:06.885Z,100546.91
2023-04-15T15:47:08.623Z,100548.78
2023-04-15T15:51:10.282Z,100555.59
2023-04-15T15:55:11.797Z,100560.69
2023-04-15T15:59:13.253Z,100559.03
2023-04-15T16:03:15.512Z,100569.09
2023-04-15T16:07:17.160Z,100565.44
2023-04-15T16:11:18.710Z,100570.41
2023-04-15T16:15:20.226Z,100577.00
2023-04-15T16:19:21.835Z,100586.81
2023-04-15T16:23:23.830Z,100588.66
2023-04-15T16:27:25.312Z,100591.59
2023-04-15T16:31:26.828Z,100591.28
2023-04-15T16:35:28.366Z,100597.63
2023-04-15T16:39:29.881Z,100596.09
2023-04-15T16:43:31.391Z,100599.53
2023-04-15T16:47:32.904Z,100600.19
2023-04-15T16:51:34.565Z,100607.13
2023-04-15T16:55:36.185Z,100607.91
2023-04-15T16:59:38.068Z,100608.50
2023-04-15T17:03:40.028Z,100620.78
2023-04-15T17:07:41.627Z,100628.34
2023-04-15T17:11:44.498Z,100634.84
2023-04-15T17:15:46.057Z,100632.56
2023-04-15T17:19:47.729Z,100646.53
2023-04-15T17:23:50.434Z,100646.59
2023-04-15T17:27:51.872Z,100652.38
2023-04-15T17:31:55.012Z,100654.34
2023-04-15T17:35:57.700Z,100657.84
2023-04-15T17:39:59.136Z,100667.78
2023-04-15T17:44:00.581Z,100669.66
2023-04-15T17:48:03.645Z,100672.00
2023-04-15T17:52:05.342Z,100679.00
2023-04-15T17:56:06.906Z,100686.31
2023-04-15T18:00:10.151Z,100695.88
2023-04-15T18:04:12.384Z,100701.56
2023-04-15T18:08:14.179Z,100697.25
2023-04-15T18:12:15.934Z,100700.31
2023-04-15T18:16:17.505Z,100710.66
2023-04-15T18:20:19.154Z,100719.78
2023-04-15T18:24:20.842Z,100735.88
2023-04-15T18:28:22.855Z,100734.72
2023-04-15T18:32:25.111Z,100739.19
2023-04-15T18:36:26.654Z,100743.94
2023-04-15T18:40:28.129Z,100748.16
2023-04-15T18:44:29.781Z,100749.59
2023-04-15T18:48:31.346Z,100758.56
2023-04-15T18:52:33.746Z,100757.47
2023-04-15T18:56:35.488Z,100768.47
2023-04-15T19:00:41.484Z,100772.78
2023-04-15T19:04:43.182Z,100778.03
2023-04-15T19:08:44.677Z,100781.19
2023-04-15T19:12:46.093Z,100793.59
2023-04-15T19:16:48.106Z,100794.16
2023-04-15T19:20:59.519Z,100799.88
2023-04-15T19:25:11.700Z,100800.13
2023-04-15T19:29:13.126Z,100801.03
2023-04-15T19:33:17.720Z,100804.00
2023-04-15T19:37:19.325Z,100807.22
2023-04-15T19:41:20.878Z,100815.06
2023-04-15T19:45:22.453Z,100813.44
2023-04-15T19:49:25.886Z,100826.94
2023-04-15T19:53:27.418Z,100820.63
2023-04-15T19:57:28.888Z,100823.47
2023-04-15T20:01:30.537Z,100825.78
2023-04-15T20:05:32.117Z,100830.44
2023-04-15T20:09:33.614Z,100829.88
2023-04-15T20:13:35.142Z,100833.03
2023-04-15T20:17:37.042Z,100828.00
2023-04-15T20:21:39.064Z,100830.16
2023-04-15T20:25:41.954Z,100832.13
2023-04-15T20:29:43.377Z,100841.69
2023-04-15T20:33:45.122Z,100844.81
2023-04-15T20:37:46.556Z,100851.56
2023-04-15T20:41:49.668Z,100847.66
2023-04-15T20:45:52.160Z,100849.25
2023-04-15T20:49:54.159Z,100845.50
2023-04-15T20:53:55.689Z,100848.09
2023-04-15T20:57:58.207Z,100847.03
2023-04-15T21:01:59.724Z,100854.59
2023-04-15T21:06:01.232Z,100855.78
2023-04-15T21:10:02.720Z,100857.94
2023-04-15T21:14:07.537Z,100862.66
2023-04-15T21:18:08.984Z,100862.44
2023-04-15T21:22:10.486Z,100873.03
2023-04-15T21:26:11.975Z,100874.34
2023-04-15T21:30:13.487Z,100884.00
2023-04-15T21:34:14.943Z,100883.47
2023-04-15T21:38:16.620Z,100883.22
2023-04-15T21:42:18.096Z,100892.94
2023-04-15T21:46:21.822Z,100895.28
2023-04-15T21:50:25.448Z,100896.66
2023-04-15T21:54:28.283Z,100906.13
2023-04-15T21:58:29.849Z,100908.41
2023-04-15T22:02:31.404Z,100914.44
2023-04-15T22:06:32.978Z,100912.91
2023-04-15T22:10:37.893Z,100917.44
2023-04-15T22:14:39.420Z,100921.94
2023-04-15T22:18:40.869Z,100925.97
2023-04-15T22:22:43.980Z,100925.41
2023-04-15T22:26:46.226Z,100938.94
2023-04-15T22:30:47.688Z,100947.44
2023-04-15T22:34:49.124Z,100939.25
2023-04-15T22:38:50.540Z,100946.88
2023-04-15T22:42:52.076Z,100952.50
2023-04-15T22:46:53.508Z,100960.81
2023-04-15T22:50:54.973Z,100956.78
2023-04-15T22:54:56.501Z,100971.88
2023-04-15T22:58:58.071Z,100970.75
2023-04-15T23:02:59.601Z,100977.31
2023-04-15T23:07:01.215Z,100977.06
2023-04-15T23:11:02.790Z,100969.44
2023-04-15T23:15:04.565Z,100973.97
2023-04-15T23:19:06.187Z,100985.50
2023-04-15T23:23:07.642Z,100979.50
2023-04-15T23:27:09.184Z,100987.59
2023-04-15T23:31:11.232Z,100992.19
2023-04-15T23:35:13.941Z,100992.19
2023-04-15T23:39:15.750Z,100988.75
2023-04-15T23:43:17.188Z,100989.44
2023-04-15T23:47:18.630Z,100996.72
2023-04-15T23:51:20.097Z,100993.81
2023-04-15T23:55:21.675Z,100993.03
2023-04-15T23:59:23.163Z,101001.00
